createdAt,value
2023-01-19T00:01:47.972Z,1.83
2023-01-19T00:04:17.239Z,2.10
2023-01-19T00:06:46.056Z,2.00
2023-01-19T00:09:15.791Z,2.00
2023-01-19T00:11:45.379Z,2.00
2023-01-19T00:14:14.213Z,2.00
2023-01-19T00:16:42.950Z,1.90
2023-01-19T00:19:12.380Z,1.97
2023-01-19T00:21:41.287Z,2.00
2023-01-19T00:24:11.872Z,1.97
2023-01-19T00:26:43.395Z,2.10
2023-01-19T00:29:13.684Z,1.80
2023-01-19T00:31:42.527Z,1.73
2023-01-19T00:34:11.389Z,2.03
2023-01-19T00:36:40.442Z,1.60
2023-01-19T00:39:09.622Z,2.10
2023-01-19T00:41:56.757Z,1.87
2023-01-19T00:44:25.967Z,1.87
2023-01-19T00:46:54.904Z,1.90
2023-01-19T00:49:24.178Z,1.90
2023-01-19T00:51:53.194Z,1.90
2023-01-19T00:54:22.040Z,1.77
2023-01-19T00:56:51.062Z,1.80
2023-01-19T00:59:19.929Z,2.20
2023-01-19T01:01:50.304Z,2.10
2023-01-19T01:04:19.767Z,1.87
2023-01-19T01:06:48.605Z,2.00
2023-01-19T01:09:17.434Z,2.23
2023-01-19T01:11:46.501Z,2.50
2023-01-19T01:14:15.375Z,2.10
2023-01-19T01:16:44.408Z,2.10
2023-01-19T01:19:13.401Z,1.93
2023-01-19T01:21:42.601Z,2.00
2023-01-19T01:24:12.250Z,2.03
2023-01-19T01:26:41.078Z,2.00
2023-01-19T01:29:11.162Z,1.97
2023-01-19T01:31:40.090Z,2.00
2023-01-19T01:34:09.620Z,2.10
2023-01-19T01:36:38.566Z,2.10
2023-01-19T01:39:08.657Z,1.87
2023-01-19T01:41:37.567Z,2.00
2023-01-19T01:44:50.253Z,2.00
2023-01-19T01:47:46.323Z,1.90
2023-01-19T01:50:25.935Z,2.13
2023-01-19T01:53:15.718Z,2.13
2023-01-19T01:55:49.648Z,2.10
2023-01-19T01:58:18.623Z,2.00
2023-01-19T02:01:06.844Z,2.10
2023-01-19T02:03:37.784Z,1.90
2023-01-19T02:06:08.506Z,2.00
2023-01-19T02:09:21.431Z,2.00
2023-01-19T02:12:08.947Z,1.83
2023-01-19T02:14:38.467Z,2.10
2023-01-19T02:17:09.024Z,2.10
2023-01-19T02:19:58.726Z,2.13
2023-01-19T02:22:44.681Z,2.10
2023-01-19T02:25:13.613Z,1.90
2023-01-19T02:27:43.955Z,2.00
2023-01-19T02:30:14.353Z,1.87
2023-01-19T02:32:44.435Z,2.00
2023-01-19T02:35:15.219Z,1.80
2023-01-19T02:37:45.756Z,1.70
2023-01-19T02:40:20.702Z,2.00
2023-01-19T02:42:51.492Z,1.70
2023-01-19T02:45:23.776Z,1.93
2023-01-19T02:47:53.744Z,1.70
2023-01-19T02:50:40.640Z,1.60
2023-01-19T02:53:33.547Z,1.70
2023-01-19T02:56:29.827Z,1.70
2023-01-19T02:59:07.770Z,1.60
2023-01-19T03:01:49.524Z,1.60
2023-01-19T03:04:22.715Z,1.67
2023-01-19T03:07:11.578Z,1.60
2023-01-19T03:10:07.688Z,1.48
2023-01-19T03:12:59.560Z,1.50
2023-01-19T03:15:38.389Z,1.50
2023-01-19T03:18:12.746Z,1.50
2023-01-19T03:20:44.796Z,1.50
2023-01-19T03:23:16.315Z,1.50
2023-01-19T03:25:47.995Z,1.48
2023-01-19T03:28:20.798Z,1.40
2023-01-19T03:30:58.396Z,1.60
2023-01-19T03:33:35.969Z,1.60
2023-01-19T03:36:12.787Z,1.60
2023-01-19T03:38:44.510Z,1.50
2023-01-19T03:41:17.432Z,1.60
2023-01-19T03:43:49.431Z,1.50
2023-01-19T03:46:19.801Z,1.60
2023-01-19T03:48:49.616Z,1.60
2023-01-19T03:51:20.049Z,1.47
2023-01-19T03:53:50.560Z,1.70
2023-01-19T03:56:28.948Z,1.57
2023-01-19T03:58:58.756Z,1.60
2023-01-19T04:01:28.879Z,1.67
2023-01-19T04:03:58.756Z,1.60
2023-01-19T04:06:27.731Z,1.60
2023-01-19T04:08:56.875Z,1.60
2023-01-19T04:11:25.800Z,1.70
2023-01-19T04:13:54.682Z,1.70
2023-01-19T04:16:24.228Z,1.70
2023-01-19T04:18:53.791Z,1.60
2023-01-19T04:21:22.844Z,1.67
2023-01-19T04:23:53.784Z,1.70
2023-01-19T04:26:22.784Z,1.60
2023-01-19T04:28:51.667Z,1.60
2023-01-19T04:31:20.707Z,1.70
2023-01-19T04:33:50.079Z,1.70
2023-01-19T04:36:19.708Z,1.70
2023-01-19T04:38:49.322Z,1.70
2023-01-19T04:41:18.916Z,2.00
2023-01-19T04:43:48.698Z,1.80
2023-01-19T04:46:17.618Z,1.73
2023-01-19T04:48:47.507Z,1.67
2023-01-19T04:51:16.798Z,1.60
2023-01-19T04:53:45.612Z,1.70
2023-01-19T04:56:14.433Z,1.67
2023-01-19T04:58:43.538Z,1.60
2023-01-19T05:01:13.547Z,1.60
2023-01-19T05:03:42.712Z,1.67
2023-01-19T05:06:11.610Z,1.57
2023-01-19T05:08:40.474Z,1.60
2023-01-19T05:11:09.311Z,1.70
2023-01-19T05:13:39.022Z,1.70
2023-01-19T05:16:08.951Z,1.60
2023-01-19T05:18:37.982Z,1.60
2023-01-19T05:21:08.749Z,1.60
2023-01-19T05:23:37.755Z,1.60
2023-01-19T05:26:07.639Z,1.60
2023-01-19T05:28:38.844Z,1.70
2023-01-19T05:31:08.141Z,1.70
2023-01-19T05:33:37.048Z,1.60
2023-01-19T05:36:06.162Z,1.70
2023-01-19T05:38:35.806Z,1.50
2023-01-19T05:41:05.196Z,1.63
2023-01-19T05:43:35.204Z,1.80
2023-01-19T05:46:07.441Z,1.60
2023-01-19T05:48:36.332Z,1.53
2023-01-19T05:51:06.008Z,1.53
2023-01-19T05:53:34.928Z,1.50
2023-01-19T05:56:09.551Z,1.60
2023-01-19T05:58:42.308Z,1.70
2023-01-19T06:01:12.197Z,1.60
2023-01-19T06:03:41.632Z,1.60
2023-01-19T06:06:10.544Z,1.50
2023-01-19T06:08:39.508Z,1.60
2023-01-19T06:11:09.862Z,1.70
2023-01-19T06:13:42.005Z,1.60
2023-01-19T06:16:12.445Z,1.40
2023-01-19T06:18:41.919Z,1.50
2023-01-19T06:21:12.898Z,1.60
2023-01-19T06:23:42.208Z,1.60
2023-01-19T06:26:12.801Z,1.60
2023-01-19T06:28:41.786Z,1.50
2023-01-19T06:31:11.398Z,1.60
2023-01-19T06:33:40.455Z,1.60
2023-01-19T06:36:09.569Z,1.60
2023-01-19T06:38:38.459Z,1.50
2023-01-19T06:41:07.283Z,1.50
2023-01-19T06:43:36.722Z,1.50
2023-01-19T06:46:06.820Z,1.60
2023-01-19T06:48:36.542Z,1.60
2023-01-19T06:51:07.132Z,1.60
2023-01-19T06:53:36.045Z,1.60
2023-01-19T06:56:05.293Z,1.52
2023-01-19T06:58:35.460Z,1.57
2023-01-19T07:01:08.045Z,1.50
2023-01-19T07:03:38.592Z,1.60
2023-01-19T07:06:09.379Z,1.60
2023-01-19T07:08:40.568Z,1.60
2023-01-19T07:11:26.360Z,1.60
2023-01-19T07:13:59.793Z,1.60
2023-01-19T07:16:28.818Z,1.60
2023-01-19T07:18:58.726Z,1.60
2023-01-19T07:21:29.312Z,1.50
2023-01-19T07:23:58.625Z,1.60
2023-01-19T07:26:28.548Z,1.50
2023-01-19T07:28:57.485Z,1.60
2023-01-19T07:31:27.309Z,1.60
2023-01-19T07:33:56.273Z,1.60
2023-01-19T07:36:25.179Z,1.60
2023-01-19T07:38:54.142Z,1.63
2023-01-19T07:41:23.489Z,1.67
2023-01-19T07:43:53.417Z,1.60
2023-01-19T07:46:22.265Z,1.67
2023-01-19T07:48:51.196Z,1.60
2023-01-19T07:51:21.278Z,1.60
2023-01-19T07:53:53.387Z,1.40
2023-01-19T07:56:23.008Z,1.50
2023-01-19T07:58:53.135Z,1.50
2023-01-19T08:01:23.245Z,1.60
2023-01-19T08:03:53.024Z,1.60
2023-01-19T08:06:30.936Z,1.60
2023-01-19T08:08:59.822Z,1.60
2023-01-19T08:11:28.944Z,1.53
2023-01-19T08:13:59.019Z,1.60
2023-01-19T08:16:28.922Z,1.60
2023-01-19T08:18:57.881Z,1.50
2023-01-19T08:21:27.081Z,1.70
2023-01-19T08:23:57.379Z,1.60
2023-01-19T08:26:32.119Z,1.53
2023-01-19T08:29:04.202Z,1.52
2023-01-19T08:31:33.325Z,1.60
2023-01-19T08:34:02.343Z,1.60
2023-01-19T08:36:31.309Z,1.60
2023-01-19T08:39:00.143Z,1.60
2023-01-19T08:41:29.087Z,1.50
2023-01-19T08:43:58.101Z,1.60
2023-01-19T08:46:26.946Z,1.50
2023-01-19T08:48:55.923Z,1.60
2023-01-19T08:51:24.953Z,1.60
2023-01-19T08:53:53.983Z,1.60
2023-01-19T08:56:23.056Z,1.70
2023-01-19T08:59:07.672Z,1.50
2023-01-19T09:01:38.505Z,1.67
2023-01-19T09:04:08.117Z,1.60
2023-01-19T09:06:37.030Z,1.60
2023-01-19T09:09:06.008Z,1.80
2023-01-19T09:11:35.662Z,1.60
2023-01-19T09:14:06.292Z,1.70
2023-01-19T09:16:35.539Z,1.60
2023-01-19T09:19:04.585Z,1.60
2023-01-19T09:21:33.472Z,1.60
2023-01-19T09:24:02.866Z,1.73
2023-01-19T09:26:33.177Z,1.70
2023-01-19T09:29:02.267Z,1.50
2023-01-19T09:31:31.211Z,1.67
2023-01-19T09:34:00.088Z,1.70
2023-01-19T09:36:29.752Z,1.70
2023-01-19T09:38:59.524Z,1.60
2023-01-19T09:41:31.850Z,1.73
2023-01-19T09:44:01.704Z,1.80
2023-01-19T09:46:42.319Z,1.70
2023-01-19T09:49:17.067Z,1.70
2023-01-19T09:51:48.896Z,1.83
2023-01-19T09:54:53.622Z,1.77
2023-01-19T09:57:23.927Z,1.80
2023-01-19T09:59:58.598Z,1.80
2023-01-19T10:02:41.560Z,1.80
2023-01-19T10:05:28.923Z,1.73
2023-01-19T10:08:20.364Z,1.70
2023-01-19T10:10:54.620Z,1.70
2023-01-19T10:13:33.494Z,1.70
2023-01-19T10:16:15.901Z,1.87
2023-01-19T10:18:52.731Z,1.70
2023-01-19T10:21:31.987Z,1.60
2023-01-19T10:24:21.901Z,1.63
2023-01-19T10:26:55.227Z,1.73
2023-01-19T10:29:35.916Z,1.70
2023-01-19T10:32:08.840Z,1.70
2023-01-19T10:34:37.902Z,1.80
2023-01-19T10:37:19.169Z,1.70
2023-01-19T10:39:54.697Z,1.80
2023-01-19T10:42:24.069Z,1.80
2023-01-19T10:44:53.825Z,1.90
2023-01-19T10:47:46.770Z,1.70
2023-01-19T10:50:40.376Z,1.67
2023-01-19T10:53:22.983Z,2.00
2023-01-19T10:56:15.220Z,1.70
2023-01-19T10:58:44.213Z,1.70
2023-01-19T11:01:24.020Z,1.70
2023-01-19T11:03:54.682Z,1.70
2023-01-19T11:06:26.751Z,1.70
2023-01-19T11:09:19.226Z,1.70
2023-01-19T11:11:53.361Z,1.83
2023-01-19T11:14:24.945Z,1.80
2023-01-19T11:16:58.882Z,1.57
2023-01-19T11:19:33.391Z,1.70
2023-01-19T11:22:33.674Z,1.98
2023-01-19T11:25:14.778Z,1.90
2023-01-19T11:27:53.348Z,1.70
2023-01-19T11:30:26.727Z,1.60
2023-01-19T11:32:57.987Z,1.70
2023-01-19T11:35:40.902Z,1.60
2023-01-19T11:38:53.528Z,1.83
2023-01-19T11:41:54.099Z,1.70
2023-01-19T11:44:25.230Z,1.83
2023-01-19T11:47:03.441Z,1.70
2023-01-19T11:49:53.808Z,1.60
2023-01-19T11:52:43.794Z,1.70
2023-01-19T11:55:40.535Z,1.70
2023-01-19T11:58:17.259Z,1.70
2023-01-19T12:01:05.769Z,1.77
2023-01-19T12:03:54.711Z,1.60
2023-01-19T12:06:33.876Z,1.70
2023-01-19T12:09:14.368Z,1.80
2023-01-19T12:11:48.650Z,1.70
2023-01-19T12:14:27.679Z,1.70
2023-01-19T12:17:01.090Z,1.60
2023-01-19T12:19:55.390Z,1.60
2023-01-19T12:22:25.181Z,1.70
2023-01-19T12:25:01.259Z,1.67
2023-01-19T12:27:43.936Z,1.70
2023-01-19T12:30:21.395Z,1.60
2023-01-19T12:32:52.016Z,1.60
2023-01-19T12:35:58.446Z,1.63
2023-01-19T12:38:48.412Z,1.70
2023-01-19T12:41:23.268Z,1.70
2023-01-19T12:44:16.860Z,1.85
2023-01-19T12:47:20.620Z,2.00
2023-01-19T12:50:01.428Z,1.60
2023-01-19T12:52:41.982Z,1.70
2023-01-19T12:55:14.063Z,1.70
2023-01-19T12:57:55.248Z,1.70
2023-01-19T13:00:27.148Z,1.67
2023-01-19T13:03:18.476Z,1.50
2023-01-19T13:05:57.044Z,1.60
2023-01-19T13:08:48.998Z,1.73
2023-01-19T13:11:20.314Z,1.60
2023-01-19T13:13:49.169Z,1.60
2023-01-19T13:16:25.589Z,1.70
2023-01-19T13:18:57.452Z,1.70
2023-01-19T13:21:29.835Z,1.60
2023-01-19T13:24:03.812Z,1.70
2023-01-19T13:26:39.992Z,1.70
2023-01-19T13:29:20.089Z,1.60
2023-01-19T13:31:50.341Z,1.70
2023-01-19T13:34:23.081Z,1.50
2023-01-19T13:36:55.823Z,1.73
2023-01-19T13:39:35.841Z,1.60
2023-01-19T13:42:19.987Z,1.60
2023-01-19T13:44:54.238Z,1.65
2023-01-19T13:47:26.881Z,1.60
2023-01-19T13:49:58.600Z,1.80
2023-01-19T13:52:29.911Z,1.73
2023-01-19T13:55:03.014Z,1.70
2023-01-19T13:57:48.686Z,1.73
2023-01-19T14:00:23.591Z,1.70
2023-01-19T14:03:06.244Z,1.83
2023-01-19T14:05:40.126Z,1.70
2023-01-19T14:08:12.355Z,1.60
2023-01-19T14:10:57.489Z,1.60
2023-01-19T14:13:40.912Z,2.00
2023-01-19T14:16:19.299Z,1.70
2023-01-19T14:19:01.022Z,1.70
2023-01-19T14:21:42.732Z,1.70
2023-01-19T14:24:21.479Z,1.80
2023-01-19T14:26:54.421Z,1.80
2023-01-19T14:29:27.988Z,1.70
2023-01-19T14:32:21.929Z,1.80
2023-01-19T14:35:15.380Z,1.55
2023-01-19T14:37:52.045Z,1.60
2023-01-19T14:40:25.509Z,1.70
2023-01-19T14:43:07.853Z,1.70
2023-01-19T14:45:40.041Z,1.70
2023-01-19T14:48:31.819Z,1.60
2023-01-19T14:51:06.253Z,1.60
2023-01-19T14:53:39.261Z,1.67
2023-01-19T14:56:08.594Z,1.57
2023-01-19T14:58:38.136Z,1.70
2023-01-19T15:01:08.868Z,1.70
2023-01-19T15:03:46.450Z,1.60
2023-01-19T15:06:20.185Z,1.70
2023-01-19T15:08:50.763Z,1.70
2023-01-19T15:11:35.905Z,1.70
2023-01-19T15:16:35.507Z,1.80
2023-01-19T15:19:04.562Z,1.70
2023-01-19T15:21:34.412Z,1.63
2023-01-19T15:24:04.049Z,1.63
2023-01-19T15:26:32.992Z,1.70
2023-01-19T15:29:02.896Z,1.70
2023-01-19T15:31:31.949Z,1.73
2023-01-19T15:34:00.932Z,1.70
2023-01-19T15:36:30.063Z,1.70
2023-01-19T15:38:58.956Z,1.63
2023-01-19T15:41:33.120Z,1.70
2023-01-19T15:44:03.099Z,1.60
2023-01-19T15:46:32.112Z,1.60
2023-01-19T15:49:00.993Z,1.53
2023-01-19T15:51:31.058Z,1.70
2023-01-19T15:54:00.023Z,1.63
2023-01-19T15:56:30.911Z,1.70
2023-01-19T15:59:01.201Z,1.70
2023-01-19T16:01:35.387Z,1.67
2023-01-19T16:04:07.178Z,2.00
2023-01-19T16:06:36.368Z,1.70
2023-01-19T16:09:05.513Z,1.50
2023-01-19T16:11:36.108Z,1.60
2023-01-19T16:14:04.972Z,1.60
2023-01-19T16:16:33.972Z,1.53
2023-01-19T16:19:04.218Z,1.70
2023-01-19T16:21:34.639Z,1.60
2023-01-19T16:24:04.143Z,1.50
2023-01-19T16:26:35.433Z,1.70
2023-01-19T16:29:11.469Z,1.70
2023-01-19T16:31:42.344Z,1.60
2023-01-19T16:34:11.258Z,1.70
2023-01-19T16:36:42.703Z,1.60
2023-01-19T16:39:14.089Z,1.63
2023-01-19T16:41:44.279Z,1.50
2023-01-19T16:44:15.309Z,1.60
2023-01-19T16:46:46.221Z,1.53
2023-01-19T16:49:23.684Z,1.60
2023-01-19T16:51:56.394Z,1.80
2023-01-19T16:54:27.448Z,1.50
2023-01-19T16:56:58.007Z,1.60
2023-01-19T16:59:27.890Z,1.60
2023-01-19T17:01:59.012Z,1.63
2023-01-19T17:04:28.331Z,1.60
2023-01-19T17:06:57.229Z,1.60
2023-01-19T17:09:26.157Z,1.50
2023-01-19T17:11:55.198Z,1.70
2023-01-19T17:14:24.162Z,1.70
2023-01-19T17:16:52.989Z,1.67
2023-01-19T17:19:23.729Z,1.53
2023-01-19T17:21:52.647Z,1.50
2023-01-19T17:24:22.057Z,1.60
2023-01-19T17:26:51.001Z,1.70
2023-01-19T17:29:19.762Z,1.60
2023-01-19T17:31:52.049Z,1.70
2023-01-19T17:34:20.866Z,1.60
2023-01-19T17:36:52.075Z,1.60
2023-01-19T17:39:20.983Z,1.70
2023-01-19T17:41:50.392Z,1.70
2023-01-19T17:44:19.282Z,1.60
2023-01-19T17:46:49.134Z,1.60
2023-01-19T17:49:18.044Z,1.50
2023-01-19T17:51:47.550Z,1.60
2023-01-19T17:54:16.387Z,1.60
2023-01-19T17:56:45.325Z,1.60
2023-01-19T17:59:14.831Z,1.53
2023-01-19T18:01:47.215Z,1.70
2023-01-19T18:04:16.426Z,1.60
2023-01-19T18:06:47.765Z,1.70
2023-01-19T18:09:16.844Z,1.60
2023-01-19T18:11:45.924Z,1.60
2023-01-19T18:14:14.761Z,1.57
2023-01-19T18:16:43.693Z,1.70
2023-01-19T18:19:12.547Z,1.70
2023-01-19T18:21:41.379Z,1.60
2023-01-19T18:24:10.270Z,1.70
2023-01-19T18:26:39.968Z,1.60
2023-01-19T18:29:08.970Z,1.60
2023-01-19T18:31:37.864Z,1.60
2023-01-19T18:34:06.672Z,1.60
2023-01-19T18:36:35.489Z,1.60
2023-01-19T18:39:04.874Z,1.70
2023-01-19T18:41:34.769Z,1.60
2023-01-19T18:44:03.881Z,1.60
2023-01-19T18:46:32.701Z,1.50
2023-01-19T18:49:01.548Z,1.53
2023-01-19T18:51:32.283Z,1.60
2023-01-19T18:54:01.124Z,1.60
2023-01-19T18:56:30.011Z,1.60
2023-01-19T18:58:59.899Z,1.60
2023-01-19T19:01:35.732Z,1.70
2023-01-19T19:04:05.127Z,1.60
2023-01-19T19:06:34.944Z,1.60
2023-01-19T19:09:04.778Z,1.60
2023-01-19T19:11:33.974Z,1.50
2023-01-19T19:14:03.514Z,1.70
2023-01-19T19:16:35.410Z,1.60
2023-01-19T19:19:05.176Z,1.60
2023-01-19T19:21:34.059Z,1.63
2023-01-19T19:24:02.879Z,1.60
2023-01-19T19:26:32.717Z,1.60
2023-01-19T19:29:02.841Z,1.67
2023-01-19T19:31:32.247Z,1.60
2023-01-19T19:34:01.917Z,1.50
2023-01-19T19:36:32.299Z,1.60
2023-01-19T19:39:01.197Z,1.60
2023-01-19T19:41:31.431Z,1.60
2023-01-19T19:44:00.440Z,1.70
2023-01-19T19:46:29.421Z,1.63
2023-01-19T19:48:58.343Z,1.70
2023-01-19T19:51:28.686Z,1.60
2023-01-19T19:53:59.817Z,1.67
2023-01-19T19:56:34.736Z,1.70
2023-01-19T20:01:34.337Z,1.70
2023-01-19T20:04:12.812Z,1.70
2023-01-19T20:06:45.080Z,1.67
2023-01-19T20:09:14.847Z,1.60
2023-01-19T20:11:47.164Z,1.60
2023-01-19T20:14:17.358Z,1.60
2023-01-19T20:16:46.239Z,1.80
2023-01-19T20:19:17.166Z,1.60
2023-01-19T20:21:46.087Z,1.70
2023-01-19T20:24:20.107Z,1.70
2023-01-19T20:26:52.737Z,1.70
2023-01-19T20:29:21.785Z,1.60
2023-01-19T20:31:53.841Z,1.70
2023-01-19T20:34:25.922Z,1.60
2023-01-19T20:36:54.845Z,1.50
2023-01-19T20:39:25.744Z,1.60
2023-01-19T20:41:54.628Z,1.70
2023-01-19T20:44:26.051Z,1.70
2023-01-19T20:46:55.695Z,1.50
2023-01-19T20:49:25.092Z,1.60
2023-01-19T20:51:54.284Z,1.60
2023-01-19T20:54:28.009Z,1.60
2023-01-19T20:56:58.382Z,1.53
2023-01-19T20:59:27.384Z,1.60
2023-01-19T21:01:58.452Z,1.60
2023-01-19T21:04:27.545Z,1.60
2023-01-19T21:06:56.872Z,1.60
2023-01-19T21:09:26.610Z,1.60
2023-01-19T21:11:57.457Z,1.60
2023-01-19T21:14:26.664Z,1.40
2023-01-19T21:16:58.870Z,1.60
2023-01-19T21:19:27.818Z,1.50
2023-01-19T21:21:56.814Z,1.70
2023-01-19T21:24:25.669Z,1.60
2023-01-19T21:26:54.500Z,1.60
2023-01-19T21:29:23.344Z,1.60
2023-01-19T21:31:52.218Z,1.50
2023-01-19T21:34:21.247Z,1.50
2023-01-19T21:36:50.091Z,1.60
2023-01-19T21:39:18.933Z,1.60
2023-01-19T21:41:47.992Z,1.60
2023-01-19T21:44:16.853Z,1.60
2023-01-19T21:46:46.718Z,1.50
2023-01-19T21:49:20.770Z,1.60
2023-01-19T21:51:51.289Z,1.70
2023-01-19T21:54:20.220Z,1.60
2023-01-19T21:56:49.135Z,1.60
2023-01-19T21:59:20.223Z,1.50
2023-01-19T22:01:50.307Z,1.60
2023-01-19T22:04:19.674Z,1.60
2023-01-19T22:06:49.048Z,1.60
2023-01-19T22:09:17.974Z,1.53
2023-01-19T22:11:46.821Z,1.60
2023-01-19T22:14:15.883Z,1.70
2023-01-19T22:16:44.756Z,1.70
2023-01-19T22:19:14.985Z,1.60
2023-01-19T22:21:44.029Z,1.60
2023-01-19T22:24:13.520Z,1.60
2023-01-19T22:26:42.341Z,1.60
2023-01-19T22:29:12.487Z,1.60
2023-01-19T22:31:41.511Z,1.70
2023-01-19T22:34:11.441Z,1.50
2023-01-19T22:36:40.413Z,1.57
2023-01-19T22:39:11.883Z,1.60
2023-01-19T22:41:46.368Z,1.70
2023-01-19T22:44:17.998Z,1.70
2023-01-19T22:46:47.323Z,1.60
2023-01-19T22:49:18.249Z,1.70
2023-01-19T22:51:47.228Z,1.53
2023-01-19T22:54:16.378Z,1.60
2023-01-19T22:56:46.411Z,1.50
2023-01-19T22:59:15.444Z,1.60
2023-01-19T23:01:45.855Z,1.60
2023-01-19T23:04:16.579Z,1.70
2023-01-19T23:06:50.781Z,1.50
2023-01-19T23:09:20.582Z,1.70
2023-01-19T23:11:53.566Z,1.60
2023-01-19T23:14:23.981Z,1.60
2023-01-19T23:16:53.078Z,1.60
2023-01-19T23:19:23.428Z,1.60
2023-01-19T23:21:53.728Z,1.70
2023-01-19T23:24:22.567Z,1.60
2023-01-19T23:26:52.019Z,1.50
2023-01-19T23:29:21.353Z,1.60
2023-01-19T23:31:51.215Z,1.60
2023-01-19T23:34:21.466Z,1.60
2023-01-19T23:36:51.125Z,1.60
2023-01-19T23:39:22.572Z,1.60
2023-01-19T23:41:51.542Z,1.60
2023-01-19T23:44:20.877Z,1.60
2023-01-19T23:46:49.762Z,1.60
2023-01-19T23:49:18.766Z,1.57
2023-01-19T23:51:47.713Z,1.60
2023-01-19T23:54:16.613Z,1.50
2023-01-19T23:56:45.544Z,1.60
2023-01-19T23:59:17.158Z,1.60
